Terminal Aerodrome Forecast
Issued by NWS Wakefield, VA

Home | Current Version | Previous Version | Text Only | Print | Product List | Glossary On
Versions: 1 2 3 4 5 6 7 8 9 10 11 12 13 14 15 16 17 18
863
FTUS41 KAKQ 302326
TAFORF
TAF
KORF 302326Z 3100/3124 19008KT P6SM VCSH SCT015 BKN080
     FM310300 20004KT P6SM SCT100 BKN250
     FM310900 23005KT 3SM BR FEW120 BKN250
     FM311400 21008KT P6SM SCT030 BKN250=

USA.gov is the U.S. government's official web portal to all federal, state and local government web resources and services.